Time;durP1;ratioP1;P1;durP2;ratioP2;P2;SDS_P1;SDS_P2;PMS_P1;PMS_P2;Temp;Humidity;BMP_temperature;BMP_pressure;BME280_temperature;BME280_humidity;BME280_pressure;Samples;Min_cycle;Max_cycle;Signal;HPM_P1;HPM_P2
2022/03/25 00:02:14;;;;;;;73.47;45.25;;;;;;;;;;4401542;32;19941;-77
2022/03/25 00:04:39;;;;;;;;;;;;;;;;;;4403295;32;20022;-75
2022/03/25 00:07:05;;;;;;;77.47;49.28;;;;;;;;;;4402555;32;19942;-76
2022/03/25 00:09:30;;;;;;;;;;;;;;;;;;4401422;32;20518;-76
2022/03/25 00:11:55;;;;;;;75.57;48.28;;;;;;;;;;4402869;32;19985;-75
2022/03/25 00:14:20;;;;;;;;;;;;;;;;;;4405466;32;20176;-76
2022/03/25 00:16:45;;;;;;;83.75;50.03;;;;;;;;;;4406756;32;20097;-76
2022/03/25 00:19:10;;;;;;;;;;;;;;;;;;4405856;32;20149;-76
2022/03/25 00:21:36;;;;;;;80.00;48.25;;;;;;;;;;4402438;32;19968;-76
2022/03/25 00:24:01;;;;;;;;;;;;;;;;;;4403621;32;20090;-76
2022/03/25 00:26:27;;;;;;;84.57;51.50;;;;;;;;;;4402871;32;19937;-75
2022/03/25 00:28:52;;;;;;;;;;;;;;;;;;4402793;32;20023;-75
2022/03/25 00:31:17;;;;;;;90.20;51.65;;;;;;;;;;4402808;32;19933;-75
2022/03/25 00:33:43;;;;;;;;;;;;;;;;;;4404256;32;20061;-75
2022/03/25 00:36:10;;;;;;;82.32;52.45;;;;;;;;;;4402299;32;19952;-75
2022/03/25 00:38:35;;;;;;;86.30;54.78;;;;;;;;;;4402831;32;20366;-75
2022/03/25 00:41:00;;;;;;;;;;;;;;;;;;4402789;32;20062;-75
2022/03/25 00:43:26;;;;;;;89.45;52.92;;;;;;;;;;4401137;32;19944;-75
2022/03/25 00:45:51;;;;;;;;;;;;;;;;;;4401353;32;20179;-75
2022/03/25 00:48:17;;;;;;;91.97;57.47;;;;;;;;;;4402856;32;20247;-75
2022/03/25 00:50:42;;;;;;;;;;;;;;;;;;4401332;32;20027;-75
2022/03/25 00:53:07;;;;;;;90.60;55.35;;;;;;;;;;4400670;32;19987;-76
2022/03/25 00:55:33;;;;;;;;;;;;;;;;;;4402198;32;20022;-76
2022/03/25 00:57:59;;;;;;;93.20;55.70;;;;;;;;;;4402070;32;19942;-76
2022/03/25 01:00:24;;;;;;;;;;;;;;;;;;4401744;32;20061;-76
2022/03/25 01:02:49;;;;;;;94.03;58.08;;;;;;;;;;4401265;32;19956;-75
2022/03/25 01:05:14;;;;;;;;;;;;;;;;;;4402429;32;20305;-76
2022/03/25 01:07:40;;;;;;;93.07;56.88;;;;;;;;;;4401307;32;19988;-75
2022/03/25 01:10:05;;;;;;;;;;;;;;;;;;4402501;32;20019;-76
2022/03/25 01:12:30;;;;;;;95.97;57.28;;;;;;;;;;4400988;32;19946;-76
2022/03/25 01:14:55;;;;;;;;;;;;;;;;;;4403130;32;20022;-76
2022/03/25 01:17:20;;;;;;;96.28;57.28;;;;;;;;;;4401885;32;19976;-76
2022/03/25 01:19:46;;;;;;;;;;;;;;;;;;4400465;32;20023;-76
2022/03/25 01:22:11;;;;;;;97.12;59.60;;;;;;;;;;4400027;32;20085;-76
2022/03/25 01:24:37;;;;;;;;;;;;;;;;;;4404316;32;20413;-76
2022/03/25 01:27:02;;;;;;;99.62;60.70;;;;;;;;;;4402596;32;19948;-75
2022/03/25 01:29:28;;;;;;;;;;;;;;;;;;4403107;32;20045;-74
2022/03/25 01:31:56;;;;;;;100.93;62.03;;;;;;;;;;4403889;32;19952;-76
2022/03/25 01:34:21;;;;;;;94.05;59.13;;;;;;;;;;4406275;32;20127;-75
2022/03/25 01:36:46;;;;;;;99.47;59.53;;;;;;;;;;4405488;32;20019;-76
2022/03/25 01:39:12;;;;;;;;;;;;;;;;;;4429132;27;20429;-78
2022/03/25 01:41:37;;;;;;;102.53;62.45;;;;;;;;;;4419516;32;19945;-78
2022/03/25 01:44:02;;;;;;;;;;;;;;;;;;4406961;32;20026;-77
2022/03/25 01:46:27;;;;;;;109.65;61.25;;;;;;;;;;4406987;32;19938;-77
2022/03/25 01:48:52;;;;;;;;;;;;;;;;;;4406409;32;20049;-77
2022/03/25 01:51:25;;;;;;;104.45;62.70;;;;;;;;;;4407765;32;19933;-77
2022/03/25 01:53:50;;;;;;;98.68;61.75;;;;;;;;;;4405590;32;20448;-78
2022/03/25 01:56:19;;;;;;;102.90;60.10;;;;;;;;;;4407823;32;20078;-78
2022/03/25 01:58:45;;;;;;;104.87;61.10;;;;;;;;;;4405850;32;20061;-80
2022/03/25 02:01:10;;;;;;;;;;;;;;;;;;4409049;32;20031;-78
2022/03/25 02:03:35;;;;;;;104.45;61.97;;;;;;;;;;4408747;32;20119;-78
2022/03/25 02:06:01;;;;;;;;;;;;;;;;;;4408055;32;20023;-78
2022/03/25 02:08:26;;;;;;;100.07;60.12;;;;;;;;;;4405940;32;19972;-78
2022/03/25 02:10:51;;;;;;;;;;;;;;;;;;4406441;32;20146;-78
2022/03/25 02:13:16;;;;;;;105.47;61.67;;;;;;;;;;4406992;32;20051;-77
2022/03/25 02:15:41;;;;;;;;;;;;;;;;;;4407323;32;20084;-77
2022/03/25 02:18:10;;;;;;;102.30;60.95;;;;;;;;;;4407002;32;19937;-78
2022/03/25 02:20:37;;;;;;;99.53;60.85;;;;;;;;;;4406014;32;20199;-77
2022/03/25 02:23:02;;;;;;;100.20;60.85;;;;;;;;;;4407743;32;20061;-78
2022/03/25 02:25:29;;;;;;;;;;;;;;;;;;4407380;32;20026;-78
2022/03/25 02:28:00;;;;;;;97.78;61.00;;;;;;;;;;4407021;32;20284;-78
2022/03/25 02:30:26;;;;;;;107.50;63.45;;;;;;;;;;4408013;32;20058;-78
2022/03/25 02:32:52;;;;;;;;;;;;;;;;;;4407409;32;20030;-78
2022/03/25 02:35:17;;;;;;;107.32;64.60;;;;;;;;;;4406119;32;19960;-78
2022/03/25 02:37:42;;;;;;;;;;;;;;;;;;4406897;32;20388;-78
2022/03/25 02:40:08;;;;;;;107.50;62.78;;;;;;;;;;4407572;32;19971;-78
2022/03/25 02:42:33;;;;;;;;;;;;;;;;;;4407535;32;20114;-78
2022/03/25 02:44:58;;;;;;;107.30;63.78;;;;;;;;;;4407336;32;19946;-78
2022/03/25 02:47:23;;;;;;;109.90;63.13;;;;;;;;;;4405890;32;20121;-78
2022/03/25 02:49:51;;;;;;;;;;;;;;;;;;4407406;32;20068;-76
2022/03/25 02:52:16;;;;;;;111.57;66.40;;;;;;;;;;4407105;32;20370;-78
2022/03/25 02:54:41;;;;;;;;;;;;;;;;;;4401288;32;20076;-77
2022/03/25 02:57:10;;;;;;;109.65;63.65;;;;;;;;;;4390237;32;19938;-78
2022/03/25 02:59:35;;;;;;;116.03;68.85;;;;;;;;;;4390137;32;20375;-77
2022/03/25 03:02:00;;;;;;;;;;;;;;;;;;4391647;32;20042;-77
2022/03/25 03:04:27;;;;;;;115.20;66.82;;;;;;;;;;4397435;32;19995;-77
2022/03/25 03:06:52;;;;;;;115.80;67.70;;;;;;;;;;4421551;32;20160;-78
2022/03/25 03:09:17;;;;;;;116.00;68.82;;;;;;;;;;4417503;32;20019;-77
2022/03/25 03:11:43;;;;;;;;;;;;;;;;;;4407118;32;20026;-78
2022/03/25 03:14:11;;;;;;;109.57;65.70;;;;;;;;;;4406944;32;20321;-78
2022/03/25 03:16:36;;;;;;;116.15;69.18;;;;;;;;;;4405073;32;20066;-76
2022/03/25 03:19:01;;;;;;;;;;;;;;;;;;4407040;32;20057;-78
2022/03/25 03:21:29;;;;;;;117.78;70.37;;;;;;;;;;4406054;32;20362;-77
2022/03/25 03:23:54;;;;;;;124.80;70.68;;;;;;;;;;4406066;32;20023;-76
2022/03/25 03:26:19;;;;;;;;;;;;;;;;;;4406740;32;20049;-78
2022/03/25 03:28:45;;;;;;;118.03;67.95;;;;;;;;;;4405153;32;20346;-78
2022/03/25 03:31:10;;;;;;;;;;;;;;;;;;4405035;32;20022;-78
2022/03/25 03:33:35;;;;;;;113.10;69.20;;;;;;;;;;4406202;32;19952;-78
2022/03/25 03:36:00;;;;;;;;;;;;;;;;;;4406435;32;20514;-78
2022/03/25 03:38:26;;;;;;;120.93;69.07;;;;;;;;;;4405735;32;19937;-79
2022/03/25 03:40:51;;;;;;;;;;;;;;;;;;4406342;32;20038;-78
2022/03/25 03:43:16;;;;;;;116.97;66.25;;;;;;;;;;4405869;32;19969;-79
2022/03/25 03:45:41;;;;;;;;;;;;;;;;;;4407349;32;20027;-78
2022/03/25 03:48:07;;;;;;;120.95;69.68;;;;;;;;;;4406481;32;19948;-78
2022/03/25 03:50:32;;;;;;;;;;;;;;;;;;4404789;32;20126;-78
2022/03/25 03:52:57;;;;;;;118.82;67.47;;;;;;;;;;4406096;32;19960;-78
2022/03/25 03:55:22;;;;;;;;;;;;;;;;;;4406707;32;20049;-79
2022/03/25 03:57:48;;;;;;;119.90;68.25;;;;;;;;;;4406587;32;19938;-78
2022/03/25 04:00:15;;;;;;;;;;;;;;;;;;4405979;32;20373;-77
2022/03/25 04:02:42;;;;;;;120.05;69.82;;;;;;;;;;4405500;32;19951;-77
2022/03/25 04:05:07;;;;;;;;;;;;;;;;;;4406116;32;20026;-77
2022/03/25 04:07:38;;;;;;;121.70;67.32;;;;;;;;;;4404735;32;20240;-77
2022/03/25 04:10:03;;;;;;;123.60;69.87;;;;;;;;;;4406103;32;20076;-79
2022/03/25 04:12:31;;;;;;;109.20;65.78;;;;;;;;;;4405754;32;20396;-79
2022/03/25 04:14:57;;;;;;;123.13;72.50;;;;;;;;;;4405541;32;20447;-78
2022/03/25 04:17:23;;;;;;;115.32;67.95;;;;;;;;;;4405417;32;20018;-78
2022/03/25 04:19:49;;;;;;;108.12;68.40;;;;;;;;;;4409977;32;20060;-78
2022/03/25 04:22:14;;;;;;;110.22;66.37;;;;;;;;;;4412322;32;20034;-78
2022/03/25 04:24:41;;;;;;;110.80;66.70;;;;;;;;;;4404936;32;20375;-77
2022/03/25 04:27:07;;;;;;;110.00;65.62;;;;;;;;;;4405352;32;20119;-77
2022/03/25 04:29:33;;;;;;;117.72;71.60;;;;;;;;;;4405319;32;20026;-77
2022/03/25 04:31:58;;;;;;;110.20;66.50;;;;;;;;;;4404916;32;20052;-78
2022/03/25 04:34:23;;;;;;;;;;;;;;;;;;4405650;32;20034;-78
2022/03/25 04:36:49;;;;;;;114.95;65.65;;;;;;;;;;4405447;32;19982;-73
2022/03/25 04:39:14;;;;;;;;;;;;;;;;;;4405500;32;20046;-77
2022/03/25 04:41:39;;;;;;;124.57;70.62;;;;;;;;;;4402013;32;19933;-77
2022/03/25 04:44:04;;;;;;;;;;;;;;;;;;4390631;32;20443;-77
2022/03/25 04:46:30;;;;;;;125.32;68.68;;;;;;;;;;4390868;32;19952;-78
2022/03/25 04:48:55;;;;;;;;;;;;;;;;;;4391104;32;20204;-75
2022/03/25 04:51:20;;;;;;;121.68;68.78;;;;;;;;;;4391448;32;19934;-77
2022/03/25 04:53:45;;;;;;;;;;;;;;;;;;4405999;32;20096;-79
2022/03/25 04:56:11;;;;;;;122.18;69.53;;;;;;;;;;4405165;32;19933;-78
2022/03/25 04:58:36;;;;;;;122.65;71.85;;;;;;;;;;4405440;32;20494;-78
2022/03/25 05:01:01;;;;;;;;;;;;;;;;;;4395195;32;20057;-77
2022/03/25 05:03:26;;;;;;;127.87;73.05;;;;;;;;;;4392541;32;20319;-77
2022/03/25 05:05:51;;;;;;;;;;;;;;;;;;4404847;32;20055;-79
2022/03/25 05:08:17;;;;;;;132.70;70.97;;;;;;;;;;4404552;32;19933;-77
2022/03/25 05:10:42;;;;;;;;;;;;;;;;;;4406253;32;20034;-77
2022/03/25 05:13:11;;;;;;;120.68;70.30;;;;;;;;;;4404365;32;20316;-80
2022/03/25 05:15:36;;;;;;;131.80;73.97;;;;;;;;;;4404646;32;20070;-76
2022/03/25 05:18:01;;;;;;;129.73;76.10;;;;;;;;;;4403577;32;20429;-77
2022/03/25 05:20:27;;;;;;;;;;;;;;;;;;4405529;32;20026;-78
2022/03/25 05:22:52;;;;;;;126.45;74.03;;;;;;;;;;4404573;32;19937;-77
2022/03/25 05:25:17;;;;;;;;;;;;;;;;;;4405032;32;20076;-79
2022/03/25 05:27:47;;;;;;;141.32;76.32;;;;;;;;;;4404868;32;19933;-78
2022/03/25 05:30:12;;;;;;;138.35;78.57;;;;;;;;;;4404983;32;20152;-79
2022/03/25 05:32:39;;;;;;;136.20;77.85;;;;;;;;;;4405464;32;20022;-78
2022/03/25 05:35:06;;;;;;;127.20;73.57;;;;;;;;;;4404173;32;20049;-78
2022/03/25 05:37:31;;;;;;;136.77;76.57;;;;;;;;;;4404515;32;20021;-78
2022/03/25 05:39:56;;;;;;;124.45;76.82;;;;;;;;;;4404486;32;20049;-78
2022/03/25 05:42:21;;;;;;;;;;;;;;;;;;4398996;32;20043;-75
2022/03/25 05:44:46;;;;;;;132.52;75.40;;;;;;;;;;4390320;32;19969;-77
2022/03/25 05:47:11;;;;;;;;;;;;;;;;;;4390659;32;20077;-77
2022/03/25 05:49:37;;;;;;;131.95;77.93;;;;;;;;;;4389570;32;20496;-76
2022/03/25 05:52:02;;;;;;;;;;;;;;;;;;4389962;32;20022;-76
2022/03/25 05:54:27;;;;;;;130.75;74.78;;;;;;;;;;4389869;32;19948;-73
2022/03/25 05:56:52;;;;;;;;;;;;;;;;;;4390323;32;20065;-77
2022/03/25 05:59:18;;;;;;;135.90;75.35;;;;;;;;;;4389880;32;19951;-77
2022/03/25 06:01:43;;;;;;;;;;;;;;;;;;4391879;32;20069;-74
2022/03/25 06:04:09;;;;;;;142.45;81.03;;;;;;;;;;4404788;32;20015;-75
2022/03/25 06:06:34;;;;;;;;;;;;;;;;;;4404706;32;20026;-77
2022/03/25 06:08:59;;;;;;;137.75;78.20;;;;;;;;;;4399789;32;19934;-75
2022/03/25 06:11:24;;;;;;;;;;;;;;;;;;4392255;32;20027;-77
2022/03/25 06:13:49;;;;;;;142.52;77.03;;;;;;;;;;4392168;32;20073;-75
2022/03/25 06:16:15;;;;;;;;;;;;;;;;;;4392351;32;20389;-75
2022/03/25 06:18:40;;;;;;;147.13;78.90;;;;;;;;;;4393370;32;20035;-76
2022/03/25 06:21:05;;;;;;;;;;;;;;;;;;4406399;32;20089;-77
2022/03/25 06:23:30;;;;;;;148.57;79.93;;;;;;;;;;4408420;32;19934;-75
2022/03/25 06:25:55;;;;;;;;;;;;;;;;;;4407447;32;20092;-75
2022/03/25 06:28:22;;;;;;;161.07;85.20;;;;;;;;;;4407055;32;19993;-77
2022/03/25 06:30:47;;;;;;;156.70;85.40;;;;;;;;;;4406640;32;20130;-73
2022/03/25 06:33:12;;;;;;;155.82;84.00;;;;;;;;;;4407188;32;20396;-75
2022/03/25 06:35:38;;;;;;;;;;;;;;;;;;4401712;32;20405;-77
2022/03/25 06:38:04;;;;;;;167.50;89.20;;;;;;;;;;4392692;32;19934;-75
2022/03/25 06:40:29;;;;;;;154.38;89.45;;;;;;;;;;4405345;32;20049;-75
2022/03/25 06:42:57;;;;;;;;;;;;;;;;;;4407670;32;20018;-75
2022/03/25 06:45:22;;;;;;;149.10;83.62;;;;;;;;;;4406647;32;19974;-75
2022/03/25 06:47:47;;;;;;;;;;;;;;;;;;4407315;32;20043;-78
2022/03/25 06:50:13;;;;;;;165.98;86.32;;;;;;;;;;4394344;32;19938;-76
2022/03/25 06:52:39;;;;;;;;;;;;;;;;;;4391702;32;20126;-78
2022/03/25 06:55:04;;;;;;;160.12;86.85;;;;;;;;;;4391646;32;19934;-78
2022/03/25 06:57:29;;;;;;;;;;;;;;;;;;4391977;32;20076;-79
2022/03/25 06:59:55;;;;;;;152.10;84.03;;;;;;;;;;4394549;32;20328;-74
2022/03/25 07:02:20;;;;;;;;;;;;;;;;;;4405781;32;20373;-75
2022/03/25 07:04:46;;;;;;;152.82;84.28;;;;;;;;;;4402616;32;19980;-74
2022/03/25 07:07:12;;;;;;;155.85;86.82;;;;;;;;;;4405792;32;20026;-76
2022/03/25 07:09:37;;;;;;;;;;;;;;;;;;4406817;32;20091;-77
2022/03/25 07:12:02;;;;;;;148.07;84.53;;;;;;;;;;4406207;32;19937;-74
2022/03/25 07:14:27;;;;;;;;;;;;;;;;;;4405997;32;20331;-77
2022/03/25 07:16:52;;;;;;;145.05;81.70;;;;;;;;;;4403675;32;19969;-78
2022/03/25 07:19:18;;;;;;;;;;;;;;;;;;4392011;32;20208;-74
2022/03/25 07:21:43;;;;;;;139.62;78.53;;;;;;;;;;4390799;32;19934;-77
2022/03/25 07:24:08;;;;;;;;;;;;;;;;;;4391350;32;20122;-75
2022/03/25 07:26:33;;;;;;;145.35;81.87;;;;;;;;;;4390902;32;19966;-73
2022/03/25 07:28:59;;;;;;;;;;;;;;;;;;4391284;32;20069;-77
2022/03/25 07:31:28;;;;;;;145.27;84.65;;;;;;;;;;4390645;32;19978;-77
2022/03/25 07:33:53;;;;;;;137.60;82.93;;;;;;;;;;4391336;32;20145;-76
2022/03/25 07:36:19;;;;;;;;;;;;;;;;;;4390793;32;20047;-76
2022/03/25 07:38:46;;;;;;;132.70;79.18;;;;;;;;;;4390264;32;19953;-78
2022/03/25 07:41:11;;;;;;;124.90;75.28;;;;;;;;;;4390014;32;20199;-75
2022/03/25 07:43:38;;;;;;;140.70;84.22;;;;;;;;;;4390020;32;20034;-77
2022/03/25 07:46:03;;;;;;;135.07;79.45;;;;;;;;;;4404725;32;20056;-74
2022/03/25 07:48:29;;;;;;;124.03;77.65;;;;;;;;;;4404703;32;20403;-77
2022/03/25 07:50:54;;;;;;;;;;;;;;;;;;4404672;32;20022;-77
2022/03/25 07:53:19;;;;;;;128.73;77.97;;;;;;;;;;4406175;32;19955;-76
2022/03/25 07:55:47;;;;;;;;;;;;;;;;;;4404482;32;20113;-78
2022/03/25 07:58:12;;;;;;;116.07;73.28;;;;;;;;;;4405290;32;19933;-77
2022/03/25 08:00:39;;;;;;;;;;;;;;;;;;4405068;32;20050;-78
2022/03/25 08:03:06;;;;;;;119.55;69.10;;;;;;;;;;4405744;32;19946;-75
2022/03/25 08:05:32;;;;;;;125.60;76.47;;;;;;;;;;4405784;32;20027;-76
2022/03/25 08:07:57;;;;;;;;;;;;;;;;;;4405334;32;20034;-76
2022/03/25 08:10:24;;;;;;;120.32;73.95;;;;;;;;;;4403848;32;20005;-78
2022/03/25 08:13:00;;;;;;;110.00;68.28;;;;;;;;;;4403467;32;20042;-77
2022/03/25 08:15:27;;;;;;;121.45;70.12;;;;;;;;;;4402124;32;20039;-77
2022/03/25 08:17:58;;;;;;;112.28;67.97;;;;;;;;;;4403886;32;20084;-75
2022/03/25 08:20:23;;;;;;;113.00;68.55;;;;;;;;;;4403158;32;20065;-78
2022/03/25 08:22:54;;;;;;;;;;;;;;;;;;4404459;32;20408;-77
2022/03/25 08:28:06;;;;;;;107.50;62.67;;;;;;;;;;4400478;32;20080;-78
2022/03/25 08:30:32;;;;;;;;;;;;;;;;;;4405270;32;20093;-77
2022/03/25 08:33:06;;;;;;;104.90;63.65;;;;;;;;;;4404959;32;19945;-78
2022/03/25 08:35:43;;;;;;;96.10;62.25;;;;;;;;;;4406156;32;20019;-78
2022/03/25 08:38:10;;;;;;;102.60;62.97;;;;;;;;;;4405535;32;20064;-78
2022/03/25 08:40:35;;;;;;;95.45;60.05;;;;;;;;;;4405332;32;20026;-79
2022/03/25 08:43:01;;;;;;;;;;;;;;;;;;4405454;32;20087;-78
2022/03/25 08:45:27;;;;;;;100.28;60.28;;;;;;;;;;4405026;32;19980;-77
2022/03/25 08:48:04;;;;;;;99.50;62.25;;;;;;;;;;4405369;32;20038;-78
2022/03/25 08:50:29;;;;;;;102.47;64.65;;;;;;;;;;4392178;32;20034;-76
2022/03/25 08:52:54;;;;;;;;;;;;;;;;;;4401357;32;20072;-79
2022/03/25 08:55:20;;;;;;;94.55;59.45;;;;;;;;;;4406853;32;20327;-77
2022/03/25 08:57:45;;;;;;;;;;;;;;;;;;4400040;32;20088;-78
2022/03/25 09:00:14;;;;;;;112.75;61.70;;;;;;;;;;4390843;32;20000;-78
2022/03/25 09:02:43;;;;;;;95.20;62.17;;;;;;;;;;4390984;32;20118;-79
2022/03/25 09:05:09;;;;;;;97.53;59.35;;;;;;;;;;4390419;32;20078;-79
2022/03/25 09:07:36;;;;;;;89.20;58.42;;;;;;;;;;4389853;32;20045;-78
2022/03/25 09:10:01;;;;;;;99.72;61.53;;;;;;;;;;4390080;32;20026;-77
2022/03/25 09:12:26;;;;;;;;;;;;;;;;;;4390571;32;20076;-75
2022/03/25 09:14:51;;;;;;;86.43;54.47;;;;;;;;;;4389231;32;19951;-73
2022/03/25 09:17:17;;;;;;;;;;;;;;;;;;4391148;32;20149;-72
2022/03/25 09:19:43;;;;;;;84.18;52.90;;;;;;;;;;4389947;32;19945;-78
2022/03/25 09:22:08;;;;;;;87.50;57.17;;;;;;;;;;4402521;32;20089;-74
2022/03/25 09:24:33;;;;;;;;;;;;;;;;;;4404955;32;20443;-77
2022/03/25 09:26:58;;;;;;;90.30;53.80;;;;;;;;;;4403974;32;19938;-77
2022/03/25 09:29:26;;;;;;;;;;;;;;;;;;4393514;32;20468;-78
2022/03/25 09:31:52;;;;;;;84.82;52.45;;;;;;;;;;4405123;32;19983;-77
2022/03/25 09:37:01;;;;;;;81.20;51.40;;;;;;;;;;4389904;32;20024;-79
2022/03/25 09:39:27;;;;;;;;;;;;;;;;;;4389762;32;20039;-76
2022/03/25 09:41:52;;;;;;;81.43;50.85;;;;;;;;;;4400923;32;19941;-78
2022/03/25 09:44:17;;;;;;;;;;;;;;;;;;4406445;32;20022;-78
2022/03/25 09:46:43;;;;;;;76.72;47.70;;;;;;;;;;4403544;32;19972;-78
2022/03/25 09:49:08;;;;;;;;;;;;;;;;;;4390940;32;20027;-75
2022/03/25 09:51:34;;;;;;;64.22;41.08;;;;;;;;;;4400869;32;20376;-79
2022/03/25 09:53:59;;;;;;;;;;;;;;;;;;4397003;32;20130;-78
2022/03/25 09:56:24;;;;;;;59.38;38.25;;;;;;;;;;4397041;32;20313;-77
2022/03/25 09:58:50;;;;;;;;;;;;;;;;;;4401323;32;20049;-76
2022/03/25 10:01:15;;;;;;;50.88;35.03;;;;;;;;;;4392642;32;19933;-75
2022/03/25 10:03:41;;;;;;;;;;;;;;;;;;4407005;32;20069;-75
2022/03/25 10:06:14;;;;;;;56.88;36.28;;;;;;;;;;4405402;32;19996;-77
2022/03/25 10:08:42;;;;;;;60.78;38.40;;;;;;;;;;4403230;32;20105;-78
2022/03/25 10:11:16;;;;;;;58.00;40.30;;;;;;;;;;4403743;32;20100;-78
2022/03/25 10:13:41;;;;;;;60.60;39.95;;;;;;;;;;4407137;32;20023;-79
2022/03/25 10:16:24;;;;;;;62.67;42.35;;;;;;;;;;4406948;32;20022;-79
2022/03/25 10:18:53;;;;;;;63.25;42.03;;;;;;;;;;4407590;32;20035;-78
2022/03/25 10:21:27;;;;;;;61.95;41.47;;;;;;;;;;4400769;32;20351;-79
2022/03/25 10:23:52;;;;;;;69.65;41.53;;;;;;;;;;4395809;32;20448;-78
2022/03/25 10:26:19;;;;;;;65.65;41.67;;;;;;;;;;4394502;32;20083;-78
2022/03/25 10:28:47;;;;;;;59.00;40.33;;;;;;;;;;4395270;32;20084;-77
2022/03/25 10:31:18;;;;;;;64.65;41.45;;;;;;;;;;4405368;32;20409;-76
2022/03/25 10:33:47;;;;;;;58.60;38.72;;;;;;;;;;4402731;32;20045;-74
2022/03/25 10:36:14;;;;;;;62.03;39.60;;;;;;;;;;4391613;32;20027;-77
2022/03/25 10:38:41;;;;;;;67.10;41.92;;;;;;;;;;4395377;32;20065;-75
2022/03/25 10:41:06;;;;;;;63.30;40.53;;;;;;;;;;4403695;32;20103;-74
2022/03/25 10:43:32;;;;;;;68.15;42.72;;;;;;;;;;4392079;32;20424;-73
2022/03/25 10:45:57;;;;;;;61.10;42.20;;;;;;;;;;4407372;32;20023;-75
2022/03/25 10:48:22;;;;;;;;;;;;;;;;;;4407065;32;20022;-76
2022/03/25 10:50:54;;;;;;;66.90;40.90;;;;;;;;;;4407425;32;19975;-77
2022/03/25 10:53:27;;;;;;;65.03;41.67;;;;;;;;;;4396159;32;20026;-78
2022/03/25 10:56:00;;;;;;;66.00;38.05;;;;;;;;;;4405075;32;20097;-76
2022/03/25 10:58:25;;;;;;;59.20;36.88;;;;;;;;;;4408273;32;20054;-75
2022/03/25 11:00:51;;;;;;;53.67;33.95;;;;;;;;;;4407764;32;20065;-74
2022/03/25 11:03:16;;;;;;;;;;;;;;;;;;4403311;32;20089;-76
2022/03/25 11:05:42;;;;;;;48.25;32.45;;;;;;;;;;4406644;32;19979;-76
2022/03/25 11:08:08;;;;;;;55.35;35.70;;;;;;;;;;4406724;32;20056;-76
2022/03/25 11:10:37;;;;;;;59.50;35.33;;;;;;;;;;4408243;32;20022;-77
2022/03/25 11:13:03;;;;;;;54.25;34.92;;;;;;;;;;4407466;32;20026;-77
2022/03/25 11:15:34;;;;;;;48.92;35.13;;;;;;;;;;4406959;32;20022;-77
2022/03/25 11:18:00;;;;;;;58.60;35.50;;;;;;;;;;4402874;32;20023;-76
2022/03/25 11:20:27;;;;;;;51.05;34.90;;;;;;;;;;4395737;32;20023;-78
2022/03/25 11:23:05;;;;;;;54.72;34.33;;;;;;;;;;4398206;32;20096;-81
2022/03/25 11:25:30;;;;;;;52.33;32.58;;;;;;;;;;4397319;32;20026;-79
2022/03/25 11:28:00;;;;;;;46.58;32.63;;;;;;;;;;4392273;32;20035;-79
2022/03/25 11:30:35;;;;;;;51.00;35.13;;;;;;;;;;4406660;32;20113;-72
2022/03/25 11:33:04;;;;;;;48.38;32.47;;;;;;;;;;4406502;32;20061;-76
2022/03/25 11:35:32;;;;;;;47.90;33.63;;;;;;;;;;4407117;32;20066;-79
2022/03/25 11:38:09;;;;;;;62.10;35.55;;;;;;;;;;4407175;32;20076;-77
2022/03/25 11:40:35;;;;;;;53.95;33.67;;;;;;;;;;4405682;32;20027;-77
2022/03/25 11:43:11;;;;;;;51.10;35.22;;;;;;;;;;4405735;32;20084;-79
2022/03/25 11:45:37;;;;;;;47.33;34.22;;;;;;;;;;4398575;32;20053;-80
2022/03/25 11:48:02;;;;;;;63.40;36.15;;;;;;;;;;4401636;32;20034;-77
2022/03/25 11:50:29;;;;;;;49.38;34.33;;;;;;;;;;4407585;32;20442;-76
2022/03/25 11:52:55;;;;;;;47.15;34.65;;;;;;;;;;4403556;32;20419;-79
2022/03/25 11:55:20;;;;;;;46.25;32.67;;;;;;;;;;4403839;32;20030;-78
2022/03/25 11:57:46;;;;;;;51.83;33.28;;;;;;;;;;4407379;32;20351;-78
2022/03/25 12:00:22;;;;;;;51.90;35.50;;;;;;;;;;4406744;32;20042;-77
2022/03/25 12:03:00;;;;;;;47.72;33.50;;;;;;;;;;4406837;32;20095;-76
2022/03/25 12:05:25;;;;;;;44.58;33.05;;;;;;;;;;4405130;32;20098;-77
2022/03/25 12:08:17;;;;;;;42.60;33.20;;;;;;;;;;4406088;32;20333;-79
2022/03/25 12:10:42;;;;;;;46.25;35.10;;;;;;;;;;4387845;32;20059;-74
2022/03/25 12:13:08;;;;;;;50.75;33.53;;;;;;;;;;4406174;32;20031;-76
2022/03/25 12:15:41;;;;;;;53.25;35.38;;;;;;;;;;4406855;32;20022;-79
2022/03/25 12:18:25;;;;;;;55.70;35.47;;;;;;;;;;4405568;32;20347;-79
2022/03/25 12:20:50;;;;;;;47.33;33.92;;;;;;;;;;4405883;32;20022;-78
2022/03/25 12:23:15;;;;;;;45.43;32.70;;;;;;;;;;4406522;32;20053;-79
2022/03/25 12:25:43;;;;;;;44.42;33.58;;;;;;;;;;4405809;32;20447;-78
2022/03/25 12:28:08;;;;;;;45.20;32.13;;;;;;;;;;4405157;32;20352;-77
2022/03/25 12:30:36;;;;;;;49.30;32.00;;;;;;;;;;4403898;32;20082;-79
2022/03/25 12:33:08;;;;;;;48.33;31.98;;;;;;;;;;4405541;32;20095;-77
2022/03/25 12:35:36;;;;;;;47.72;32.83;;;;;;;;;;4405120;32;20031;-76
2022/03/25 12:38:07;;;;;;;48.20;33.30;;;;;;;;;;4404967;32;20065;-78
2022/03/25 12:40:34;;;;;;;40.55;31.67;;;;;;;;;;4405416;32;20022;-75
2022/03/25 12:43:02;;;;;;;46.17;32.67;;;;;;;;;;4405329;32;20022;-75
2022/03/25 12:45:32;;;;;;;45.40;31.67;;;;;;;;;;4405156;32;20023;-76
2022/03/25 12:47:58;;;;;;;41.55;29.40;;;;;;;;;;4405947;32;20123;-77
2022/03/25 12:50:23;;;;;;;48.95;32.10;;;;;;;;;;4405159;32;20109;-77
2022/03/25 12:53:01;;;;;;;56.58;31.48;;;;;;;;;;4405026;32;20337;-78
2022/03/25 12:55:28;;;;;;;48.85;31.17;;;;;;;;;;4405623;32;20062;-75
2022/03/25 12:58:00;;;;;;;42.08;29.87;;;;;;;;;;4404788;32;20454;-79
2022/03/25 13:00:31;;;;;;;37.83;28.48;;;;;;;;;;4406381;32;20366;-76
2022/03/25 13:02:56;;;;;;;44.60;30.25;;;;;;;;;;4404490;32;20058;-78
2022/03/25 13:05:21;;;;;;;43.67;31.02;;;;;;;;;;4405708;32;20091;-78
2022/03/25 13:07:47;;;;;;;42.65;30.58;;;;;;;;;;4405462;32;20162;-78
2022/03/25 13:10:13;;;;;;;47.47;31.87;;;;;;;;;;4405044;32;20064;-77
2022/03/25 13:12:40;;;;;;;45.85;30.83;;;;;;;;;;4404669;32;20077;-75
2022/03/25 13:15:06;;;;;;;47.30;31.55;;;;;;;;;;4404848;32;20027;-78
2022/03/25 13:17:35;;;;;;;50.22;32.08;;;;;;;;;;4405034;32;20039;-78
2022/03/25 13:20:01;;;;;;;43.50;31.35;;;;;;;;;;4406107;32;20392;-74
2022/03/25 13:22:31;;;;;;;48.97;32.20;;;;;;;;;;4408084;32;20058;-79
2022/03/25 13:24:57;;;;;;;40.70;31.23;;;;;;;;;;4407628;32;20048;-75
2022/03/25 13:27:23;;;;;;;44.15;30.98;;;;;;;;;;4407835;32;20054;-77
2022/03/25 13:29:48;;;;;;;46.22;30.83;;;;;;;;;;4408667;32;20064;-78
2022/03/25 13:32:46;;;;;;;47.00;31.95;;;;;;;;;;4406703;32;20359;-77
2022/03/25 13:35:14;;;;;;;47.35;32.58;;;;;;;;;;4389670;32;20376;-79
2022/03/25 13:37:39;;;;;;;46.88;32.83;;;;;;;;;;4407314;32;20424;-77
2022/03/25 13:40:23;;;;;;;46.13;31.55;;;;;;;;;;4406625;32;20076;-76
2022/03/25 13:42:53;;;;;;;44.05;31.60;;;;;;;;;;4407412;32;20058;-74
2022/03/25 13:45:19;;;;;;;49.05;31.02;;;;;;;;;;4407914;32;20018;-78
2022/03/25 13:48:01;;;;;;;47.55;31.87;;;;;;;;;;4407551;32;20065;-78
2022/03/25 13:50:27;;;;;;;51.83;34.30;;;;;;;;;;4407359;32;20175;-78
2022/03/25 13:52:56;;;;;;;48.65;33.30;;;;;;;;;;4407132;32;20034;-77
2022/03/25 13:55:30;;;;;;;46.33;31.00;;;;;;;;;;4407164;32;20057;-74
2022/03/25 13:57:56;;;;;;;46.33;32.17;;;;;;;;;;4402228;32;20096;-74
2022/03/25 14:00:32;;;;;;;47.28;33.92;;;;;;;;;;4404056;32;20023;-75
2022/03/25 14:02:58;;;;;;;49.97;35.78;;;;;;;;;;4405721;32;20058;-75
2022/03/25 14:05:25;;;;;;;49.80;34.17;;;;;;;;;;4405153;32;20026;-76
2022/03/25 14:07:51;;;;;;;51.03;33.88;;;;;;;;;;4405243;32;20023;-76
2022/03/25 14:10:16;;;;;;;47.05;33.40;;;;;;;;;;4405859;32;20419;-79
2022/03/25 14:12:42;;;;;;;49.90;34.00;;;;;;;;;;4406155;32;20059;-74
2022/03/25 14:15:09;;;;;;;49.67;35.13;;;;;;;;;;4406582;32;20360;-77
2022/03/25 14:17:38;;;;;;;49.05;34.13;;;;;;;;;;4406556;32;20418;-77
2022/03/25 14:20:20;;;;;;;48.28;35.08;;;;;;;;;;4405083;32;20447;-75
2022/03/25 14:22:47;;;;;;;47.92;33.75;;;;;;;;;;4405604;32;20026;-76
2022/03/25 14:25:16;;;;;;;47.00;32.30;;;;;;;;;;4406294;32;20038;-80
2022/03/25 14:27:42;;;;;;;43.10;32.55;;;;;;;;;;4406720;32;20038;-76
2022/03/25 14:30:07;;;;;;;49.58;33.85;;;;;;;;;;4405299;32;20447;-76
2022/03/25 14:32:33;;;;;;;46.97;35.08;;;;;;;;;;4406176;32;20038;-77
2022/03/25 14:34:58;;;;;;;48.37;34.83;;;;;;;;;;4407372;32;20447;-77
2022/03/25 14:37:27;;;;;;;49.95;34.30;;;;;;;;;;4406567;32;20126;-74
2022/03/25 14:39:53;;;;;;;45.95;34.58;;;;;;;;;;4405611;32;20077;-76
2022/03/25 14:42:18;;;;;;;53.00;34.75;;;;;;;;;;4406461;32;20026;-80
2022/03/25 14:44:45;;;;;;;47.85;34.58;;;;;;;;;;4407183;32;20030;-76
2022/03/25 14:47:11;;;;;;;46.55;35.15;;;;;;;;;;4395095;32;20078;-74
2022/03/25 14:49:36;;;;;;;51.28;33.95;;;;;;;;;;4392013;32;20509;-76
2022/03/25 14:52:04;;;;;;;51.10;35.65;;;;;;;;;;4390774;32;20027;-79